sensor_id;sensor_type;location;lat;lon;timestamp;P1;durP1;ratioP1;P2;durP2;ratioP2
5133;SDS011;2585;48.696;10.066;2022-08-03T00:02:14;3.20;;;2.90;;
5133;SDS011;2585;48.696;10.066;2022-08-03T00:04:42;3.80;;;2.97;;
5133;SDS011;2585;48.696;10.066;2022-08-03T00:07:08;4.67;;;3.03;;
5133;SDS011;2585;48.696;10.066;2022-08-03T00:09:35;2.80;;;2.60;;
5133;SDS011;2585;48.696;10.066;2022-08-03T00:12:02;6.13;;;3.00;;
5133;SDS011;2585;48.696;10.066;2022-08-03T00:14:29;2.57;;;2.37;;
5133;SDS011;2585;48.696;10.066;2022-08-03T00:16:56;3.30;;;2.60;;
5133;SDS011;2585;48.696;10.066;2022-08-03T00:19:23;3.40;;;3.00;;
5133;SDS011;2585;48.696;10.066;2022-08-03T00:21:50;3.53;;;2.60;;
5133;SDS011;2585;48.696;10.066;2022-08-03T00:24:16;3.03;;;2.53;;
5133;SDS011;2585;48.696;10.066;2022-08-03T00:26:43;2.70;;;2.50;;
5133;SDS011;2585;48.696;10.066;2022-08-03T00:29:10;3.50;;;3.10;;
5133;SDS011;2585;48.696;10.066;2022-08-03T00:31:37;3.50;;;2.73;;
5133;SDS011;2585;48.696;10.066;2022-08-03T00:34:24;3.40;;;2.93;;
5133;SDS011;2585;48.696;10.066;2022-08-03T00:37:10;3.20;;;2.90;;
5133;SDS011;2585;48.696;10.066;2022-08-03T00:39:37;3.17;;;2.50;;
5133;SDS011;2585;48.696;10.066;2022-08-03T00:42:05;3.40;;;3.10;;
5133;SDS011;2585;48.696;10.066;2022-08-03T00:44:38;3.40;;;3.10;;
5133;SDS011;2585;48.696;10.066;2022-08-03T00:47:07;5.70;;;3.90;;
5133;SDS011;2585;48.696;10.066;2022-08-03T00:49:36;3.03;;;2.83;;
5133;SDS011;2585;48.696;10.066;2022-08-03T00:52:09;3.20;;;2.90;;
5133;SDS011;2585;48.696;10.066;2022-08-03T00:54:38;3.33;;;3.03;;
5133;SDS011;2585;48.696;10.066;2022-08-03T00:57:06;3.17;;;2.87;;
5133;SDS011;2585;48.696;10.066;2022-08-03T00:59:33;3.33;;;2.80;;
5133;SDS011;2585;48.696;10.066;2022-08-03T01:02:00;2.90;;;2.70;;
5133;SDS011;2585;48.696;10.066;2022-08-03T01:04:26;3.20;;;2.87;;
5133;SDS011;2585;48.696;10.066;2022-08-03T01:06:57;5.40;;;3.30;;
5133;SDS011;2585;48.696;10.066;2022-08-03T01:12:21;3.17;;;2.50;;
5133;SDS011;2585;48.696;10.066;2022-08-03T01:15:09;5.43;;;3.07;;
5133;SDS011;2585;48.696;10.066;2022-08-03T01:17:54;3.60;;;2.97;;
5133;SDS011;2585;48.696;10.066;2022-08-03T01:20:23;3.87;;;2.70;;
5133;SDS011;2585;48.696;10.066;2022-08-03T01:31:52;4.53;;;2.80;;
5133;SDS011;2585;48.696;10.066;2022-08-03T01:34:47;5.60;;;3.20;;
5133;SDS011;2585;48.696;10.066;2022-08-03T01:37:53;3.63;;;3.10;;
5133;SDS011;2585;48.696;10.066;2022-08-03T01:40:21;3.07;;;2.77;;
5133;SDS011;2585;48.696;10.066;2022-08-03T01:42:51;4.77;;;3.13;;
5133;SDS011;2585;48.696;10.066;2022-08-03T01:45:19;4.40;;;3.33;;
5133;SDS011;2585;48.696;10.066;2022-08-03T01:47:47;3.50;;;2.87;;
5133;SDS011;2585;48.696;10.066;2022-08-03T01:50:16;4.30;;;3.20;;
5133;SDS011;2585;48.696;10.066;2022-08-03T01:52:47;3.80;;;3.50;;
5133;SDS011;2585;48.696;10.066;2022-08-03T01:55:16;2.77;;;2.57;;
5133;SDS011;2585;48.696;10.066;2022-08-03T01:57:44;3.63;;;3.10;;
5133;SDS011;2585;48.696;10.066;2022-08-03T02:00:31;4.33;;;3.27;;
5133;SDS011;2585;48.696;10.066;2022-08-03T02:03:01;5.23;;;3.17;;
5133;SDS011;2585;48.696;10.066;2022-08-03T02:05:31;4.10;;;3.10;;
5133;SDS011;2585;48.696;10.066;2022-08-03T02:07:59;4.83;;;3.30;;
5133;SDS011;2585;48.696;10.066;2022-08-03T02:10:28;5.53;;;3.40;;
5133;SDS011;2585;48.696;10.066;2022-08-03T02:13:01;3.57;;;3.27;;
5133;SDS011;2585;48.696;10.066;2022-08-03T02:15:34;5.17;;;3.40;;
5133;SDS011;2585;48.696;10.066;2022-08-03T02:18:03;4.13;;;3.03;;
5133;SDS011;2585;48.696;10.066;2022-08-03T02:20:32;4.43;;;2.70;;
5133;SDS011;2585;48.696;10.066;2022-08-03T02:25:47;3.30;;;3.00;;
5133;SDS011;2585;48.696;10.066;2022-08-03T02:28:19;2.87;;;2.57;;
5133;SDS011;2585;48.696;10.066;2022-08-03T02:30:49;3.70;;;2.90;;
5133;SDS011;2585;48.696;10.066;2022-08-03T02:33:27;3.83;;;3.17;;
5133;SDS011;2585;48.696;10.066;2022-08-03T02:35:57;3.70;;;3.30;;
5133;SDS011;2585;48.696;10.066;2022-08-03T02:38:30;4.20;;;3.80;;
5133;SDS011;2585;48.696;10.066;2022-08-03T02:40:58;4.30;;;2.90;;
5133;SDS011;2585;48.696;10.066;2022-08-03T02:43:30;3.10;;;2.73;;
5133;SDS011;2585;48.696;10.066;2022-08-03T02:46:21;3.10;;;2.90;;
5133;SDS011;2585;48.696;10.066;2022-08-03T02:48:52;3.60;;;2.60;;
5133;SDS011;2585;48.696;10.066;2022-08-03T02:51:20;3.57;;;2.87;;
5133;SDS011;2585;48.696;10.066;2022-08-03T02:53:49;5.03;;;3.40;;
5133;SDS011;2585;48.696;10.066;2022-08-03T02:56:19;3.23;;;2.93;;
5133;SDS011;2585;48.696;10.066;2022-08-03T02:58:48;4.50;;;3.57;;
5133;SDS011;2585;48.696;10.066;2022-08-03T03:01:18;3.13;;;2.83;;
5133;SDS011;2585;48.696;10.066;2022-08-03T03:03:47;6.63;;;2.70;;
5133;SDS011;2585;48.696;10.066;2022-08-03T03:06:16;4.20;;;3.00;;
5133;SDS011;2585;48.696;10.066;2022-08-03T03:08:45;3.87;;;3.47;;
5133;SDS011;2585;48.696;10.066;2022-08-03T03:11:13;4.10;;;3.03;;
5133;SDS011;2585;48.696;10.066;2022-08-03T03:13:42;4.20;;;3.43;;
5133;SDS011;2585;48.696;10.066;2022-08-03T03:16:10;4.90;;;3.00;;
5133;SDS011;2585;48.696;10.066;2022-08-03T03:18:38;3.03;;;2.73;;
5133;SDS011;2585;48.696;10.066;2022-08-03T03:21:08;3.10;;;2.80;;
5133;SDS011;2585;48.696;10.066;2022-08-03T03:23:36;3.13;;;2.80;;
5133;SDS011;2585;48.696;10.066;2022-08-03T03:26:05;5.37;;;2.80;;
5133;SDS011;2585;48.696;10.066;2022-08-03T03:28:33;7.10;;;3.20;;
5133;SDS011;2585;48.696;10.066;2022-08-03T03:31:02;7.87;;;3.47;;
5133;SDS011;2585;48.696;10.066;2022-08-03T03:33:34;4.23;;;2.93;;
5133;SDS011;2585;48.696;10.066;2022-08-03T03:36:03;4.73;;;3.10;;
5133;SDS011;2585;48.696;10.066;2022-08-03T03:38:31;5.53;;;3.20;;
5133;SDS011;2585;48.696;10.066;2022-08-03T03:40:58;3.47;;;2.70;;
5133;SDS011;2585;48.696;10.066;2022-08-03T03:43:26;4.10;;;2.87;;
5133;SDS011;2585;48.696;10.066;2022-08-03T03:45:54;5.00;;;2.83;;
5133;SDS011;2585;48.696;10.066;2022-08-03T03:48:23;3.57;;;3.03;;
5133;SDS011;2585;48.696;10.066;2022-08-03T03:50:50;7.13;;;4.00;;
5133;SDS011;2585;48.696;10.066;2022-08-03T03:53:17;3.60;;;3.30;;
5133;SDS011;2585;48.696;10.066;2022-08-03T03:55:44;3.63;;;3.30;;
5133;SDS011;2585;48.696;10.066;2022-08-03T03:58:27;4.80;;;3.83;;
5133;SDS011;2585;48.696;10.066;2022-08-03T04:00:55;4.90;;;3.00;;
5133;SDS011;2585;48.696;10.066;2022-08-03T04:03:22;3.63;;;3.30;;
5133;SDS011;2585;48.696;10.066;2022-08-03T04:05:49;6.50;;;3.70;;
5133;SDS011;2585;48.696;10.066;2022-08-03T04:08:34;4.53;;;3.27;;
5133;SDS011;2585;48.696;10.066;2022-08-03T04:11:21;3.83;;;3.53;;
5133;SDS011;2585;48.696;10.066;2022-08-03T04:14:16;5.40;;;3.03;;
5133;SDS011;2585;48.696;10.066;2022-08-03T04:16:48;8.23;;;3.47;;
5133;SDS011;2585;48.696;10.066;2022-08-03T04:20:01;4.00;;;3.10;;
5133;SDS011;2585;48.696;10.066;2022-08-03T04:22:23;4.03;;;3.20;;
5133;SDS011;2585;48.696;10.066;2022-08-03T04:24:58;8.10;;;3.27;;
5133;SDS011;2585;48.696;10.066;2022-08-03T04:27:29;5.00;;;3.30;;
5133;SDS011;2585;48.696;10.066;2022-08-03T04:30:02;4.03;;;3.57;;
5133;SDS011;2585;48.696;10.066;2022-08-03T04:32:30;3.47;;;3.00;;
5133;SDS011;2585;48.696;10.066;2022-08-03T04:34:59;4.20;;;3.80;;
5133;SDS011;2585;48.696;10.066;2022-08-03T04:37:34;6.23;;;3.50;;
5133;SDS011;2585;48.696;10.066;2022-08-03T04:40:04;3.63;;;3.33;;
5133;SDS011;2585;48.696;10.066;2022-08-03T04:42:33;4.00;;;3.17;;
5133;SDS011;2585;48.696;10.066;2022-08-03T04:45:02;6.53;;;2.80;;
5133;SDS011;2585;48.696;10.066;2022-08-03T04:47:32;3.50;;;3.20;;
5133;SDS011;2585;48.696;10.066;2022-08-03T04:50:00;4.63;;;3.30;;
5133;SDS011;2585;48.696;10.066;2022-08-03T04:52:27;4.33;;;3.57;;
5133;SDS011;2585;48.696;10.066;2022-08-03T04:54:55;3.87;;;3.47;;
5133;SDS011;2585;48.696;10.066;2022-08-03T04:57:23;3.40;;;3.10;;
5133;SDS011;2585;48.696;10.066;2022-08-03T04:59:50;4.50;;;3.40;;
5133;SDS011;2585;48.696;10.066;2022-08-03T05:02:28;4.07;;;3.63;;
5133;SDS011;2585;48.696;10.066;2022-08-03T05:04:56;3.83;;;3.53;;
5133;SDS011;2585;48.696;10.066;2022-08-03T05:07:23;4.47;;;3.77;;
5133;SDS011;2585;48.696;10.066;2022-08-03T05:09:50;6.90;;;3.50;;
5133;SDS011;2585;48.696;10.066;2022-08-03T05:12:28;7.63;;;3.60;;
5133;SDS011;2585;48.696;10.066;2022-08-03T05:14:58;6.40;;;3.80;;
5133;SDS011;2585;48.696;10.066;2022-08-03T05:17:25;4.70;;;4.03;;
5133;SDS011;2585;48.696;10.066;2022-08-03T05:19:52;4.17;;;3.77;;
5133;SDS011;2585;48.696;10.066;2022-08-03T05:22:20;5.50;;;3.97;;
5133;SDS011;2585;48.696;10.066;2022-08-03T05:24:47;6.47;;;4.43;;
5133;SDS011;2585;48.696;10.066;2022-08-03T05:27:15;4.43;;;4.00;;
5133;SDS011;2585;48.696;10.066;2022-08-03T05:29:45;4.23;;;3.83;;
5133;SDS011;2585;48.696;10.066;2022-08-03T05:32:12;3.43;;;3.13;;
5133;SDS011;2585;48.696;10.066;2022-08-03T05:34:39;3.90;;;3.40;;
5133;SDS011;2585;48.696;10.066;2022-08-03T05:37:06;5.27;;;4.00;;
5133;SDS011;2585;48.696;10.066;2022-08-03T05:39:34;9.50;;;4.30;;
5133;SDS011;2585;48.696;10.066;2022-08-03T05:42:01;5.17;;;3.90;;
5133;SDS011;2585;48.696;10.066;2022-08-03T05:44:28;4.60;;;4.20;;
5133;SDS011;2585;48.696;10.066;2022-08-03T05:46:56;6.30;;;4.20;;
5133;SDS011;2585;48.696;10.066;2022-08-03T05:49:24;5.93;;;3.83;;
5133;SDS011;2585;48.696;10.066;2022-08-03T05:51:51;5.30;;;4.47;;
5133;SDS011;2585;48.696;10.066;2022-08-03T05:54:37;5.90;;;4.17;;
5133;SDS011;2585;48.696;10.066;2022-08-03T05:57:22;9.53;;;4.53;;
5133;SDS011;2585;48.696;10.066;2022-08-03T05:59:50;4.20;;;3.73;;
5133;SDS011;2585;48.696;10.066;2022-08-03T06:02:22;7.37;;;4.30;;
5133;SDS011;2585;48.696;10.066;2022-08-03T06:04:49;4.57;;;4.07;;
5133;SDS011;2585;48.696;10.066;2022-08-03T06:07:16;4.97;;;4.50;;
5133;SDS011;2585;48.696;10.066;2022-08-03T06:09:43;5.30;;;3.77;;
5133;SDS011;2585;48.696;10.066;2022-08-03T06:12:30;6.60;;;4.20;;
5133;SDS011;2585;48.696;10.066;2022-08-03T06:14:57;6.60;;;5.10;;
5133;SDS011;2585;48.696;10.066;2022-08-03T06:17:24;4.37;;;3.97;;
5133;SDS011;2585;48.696;10.066;2022-08-03T06:19:52;4.40;;;3.67;;
5133;SDS011;2585;48.696;10.066;2022-08-03T06:22:19;5.13;;;4.10;;
5133;SDS011;2585;48.696;10.066;2022-08-03T06:24:46;4.27;;;3.87;;
5133;SDS011;2585;48.696;10.066;2022-08-03T06:27:19;5.70;;;3.97;;
5133;SDS011;2585;48.696;10.066;2022-08-03T06:30:02;5.37;;;4.10;;
5133;SDS011;2585;48.696;10.066;2022-08-03T06:32:29;4.67;;;3.90;;
5133;SDS011;2585;48.696;10.066;2022-08-03T06:34:56;5.20;;;3.83;;
5133;SDS011;2585;48.696;10.066;2022-08-03T06:37:23;8.67;;;3.67;;
5133;SDS011;2585;48.696;10.066;2022-08-03T06:39:50;4.50;;;3.40;;
5133;SDS011;2585;48.696;10.066;2022-08-03T06:42:17;5.57;;;4.27;;
5133;SDS011;2585;48.696;10.066;2022-08-03T06:44:45;3.93;;;3.43;;
5133;SDS011;2585;48.696;10.066;2022-08-03T06:47:12;8.87;;;4.57;;
5133;SDS011;2585;48.696;10.066;2022-08-03T06:49:39;4.40;;;4.00;;
5133;SDS011;2585;48.696;10.066;2022-08-03T06:52:06;6.23;;;4.10;;
5133;SDS011;2585;48.696;10.066;2022-08-03T06:54:34;3.87;;;3.47;;
5133;SDS011;2585;48.696;10.066;2022-08-03T06:57:01;9.37;;;3.40;;
5133;SDS011;2585;48.696;10.066;2022-08-03T06:59:28;6.30;;;3.60;;
5133;SDS011;2585;48.696;10.066;2022-08-03T07:02:15;5.70;;;3.40;;
5133;SDS011;2585;48.696;10.066;2022-08-03T07:04:46;4.33;;;3.20;;
5133;SDS011;2585;48.696;10.066;2022-08-03T07:07:14;3.73;;;3.33;;
5133;SDS011;2585;48.696;10.066;2022-08-03T07:09:41;3.23;;;2.93;;
5133;SDS011;2585;48.696;10.066;2022-08-03T07:12:22;5.53;;;3.30;;
5133;SDS011;2585;48.696;10.066;2022-08-03T07:14:49;5.00;;;2.37;;
5133;SDS011;2585;48.696;10.066;2022-08-03T07:17:16;3.00;;;2.70;;
5133;SDS011;2585;48.696;10.066;2022-08-03T07:19:43;3.67;;;2.60;;
5133;SDS011;2585;48.696;10.066;2022-08-03T07:22:09;4.60;;;2.73;;
5133;SDS011;2585;48.696;10.066;2022-08-03T07:24:37;4.30;;;2.90;;
5133;SDS011;2585;48.696;10.066;2022-08-03T07:27:04;3.43;;;2.77;;
5133;SDS011;2585;48.696;10.066;2022-08-03T07:29:30;3.43;;;2.50;;
5133;SDS011;2585;48.696;10.066;2022-08-03T07:32:00;2.20;;;2.07;;
5133;SDS011;2585;48.696;10.066;2022-08-03T07:34:27;4.47;;;2.40;;
5133;SDS011;2585;48.696;10.066;2022-08-03T07:36:54;4.53;;;2.27;;
5133;SDS011;2585;48.696;10.066;2022-08-03T07:39:21;2.57;;;2.37;;
5133;SDS011;2585;48.696;10.066;2022-08-03T07:41:48;3.17;;;2.87;;
5133;SDS011;2585;48.696;10.066;2022-08-03T07:44:19;3.53;;;2.03;;
5133;SDS011;2585;48.696;10.066;2022-08-03T07:46:46;5.70;;;2.73;;
5133;SDS011;2585;48.696;10.066;2022-08-03T07:49:13;2.40;;;2.20;;
5133;SDS011;2585;48.696;10.066;2022-08-03T07:51:40;3.17;;;2.20;;
5133;SDS011;2585;48.696;10.066;2022-08-03T07:54:07;2.40;;;2.00;;
5133;SDS011;2585;48.696;10.066;2022-08-03T07:56:35;1.97;;;1.67;;
5133;SDS011;2585;48.696;10.066;2022-08-03T07:59:02;3.83;;;2.33;;
5133;SDS011;2585;48.696;10.066;2022-08-03T08:01:29;2.80;;;2.00;;
5133;SDS011;2585;48.696;10.066;2022-08-03T08:03:59;2.70;;;2.00;;
5133;SDS011;2585;48.696;10.066;2022-08-03T08:06:26;3.67;;;2.00;;
5133;SDS011;2585;48.696;10.066;2022-08-03T08:08:53;3.43;;;1.70;;
5133;SDS011;2585;48.696;10.066;2022-08-03T08:11:24;2.93;;;1.90;;
5133;SDS011;2585;48.696;10.066;2022-08-03T08:13:51;5.90;;;1.80;;
5133;SDS011;2585;48.696;10.066;2022-08-03T08:16:18;2.00;;;1.83;;
5133;SDS011;2585;48.696;10.066;2022-08-03T08:18:44;2.50;;;1.77;;
5133;SDS011;2585;48.696;10.066;2022-08-03T08:21:11;1.60;;;1.50;;
5133;SDS011;2585;48.696;10.066;2022-08-03T08:23:38;3.03;;;1.63;;
5133;SDS011;2585;48.696;10.066;2022-08-03T08:26:10;4.53;;;1.67;;
5133;SDS011;2585;48.696;10.066;2022-08-03T08:28:37;1.83;;;1.50;;
5133;SDS011;2585;48.696;10.066;2022-08-03T08:31:04;1.70;;;1.57;;
5133;SDS011;2585;48.696;10.066;2022-08-03T08:33:31;1.67;;;1.57;;
5133;SDS011;2585;48.696;10.066;2022-08-03T08:36:19;2.67;;;1.63;;
5133;SDS011;2585;48.696;10.066;2022-08-03T08:38:46;1.67;;;1.57;;
5133;SDS011;2585;48.696;10.066;2022-08-03T08:41:14;1.60;;;1.50;;
5133;SDS011;2585;48.696;10.066;2022-08-03T08:43:41;2.03;;;1.60;;
5133;SDS011;2585;48.696;10.066;2022-08-03T08:46:11;1.57;;;1.47;;
5133;SDS011;2585;48.696;10.066;2022-08-03T08:48:50;1.90;;;1.80;;
5133;SDS011;2585;48.696;10.066;2022-08-03T08:51:19;1.50;;;1.40;;
5133;SDS011;2585;48.696;10.066;2022-08-03T08:53:51;2.70;;;1.40;;
5133;SDS011;2585;48.696;10.066;2022-08-03T08:56:19;1.73;;;1.20;;
5133;SDS011;2585;48.696;10.066;2022-08-03T08:58:51;3.20;;;1.53;;
5133;SDS011;2585;48.696;10.066;2022-08-03T09:01:19;1.37;;;1.23;;
5133;SDS011;2585;48.696;10.066;2022-08-03T09:03:47;1.50;;;1.40;;
5133;SDS011;2585;48.696;10.066;2022-08-03T09:06:14;1.80;;;1.43;;
5133;SDS011;2585;48.696;10.066;2022-08-03T09:08:42;2.70;;;1.67;;
5133;SDS011;2585;48.696;10.066;2022-08-03T09:11:09;2.70;;;1.50;;
5133;SDS011;2585;48.696;10.066;2022-08-03T09:13:37;1.30;;;1.20;;
5133;SDS011;2585;48.696;10.066;2022-08-03T09:16:14;2.17;;;1.33;;
5133;SDS011;2585;48.696;10.066;2022-08-03T09:18:44;2.17;;;1.50;;
5133;SDS011;2585;48.696;10.066;2022-08-03T09:21:19;1.70;;;1.60;;
5133;SDS011;2585;48.696;10.066;2022-08-03T09:24:00;3.67;;;1.50;;
5133;SDS011;2585;48.696;10.066;2022-08-03T09:26:32;2.23;;;1.70;;
5133;SDS011;2585;48.696;10.066;2022-08-03T09:29:07;1.87;;;1.47;;
5133;SDS011;2585;48.696;10.066;2022-08-03T09:31:43;2.43;;;1.40;;
5133;SDS011;2585;48.696;10.066;2022-08-03T09:34:12;2.70;;;1.40;;
5133;SDS011;2585;48.696;10.066;2022-08-03T09:36:44;2.60;;;1.47;;
5133;SDS011;2585;48.696;10.066;2022-08-03T09:39:13;2.03;;;1.40;;
5133;SDS011;2585;48.696;10.066;2022-08-03T09:41:45;3.20;;;1.60;;
5133;SDS011;2585;48.696;10.066;2022-08-03T09:44:14;2.93;;;1.53;;
5133;SDS011;2585;48.696;10.066;2022-08-03T09:46:54;2.33;;;1.63;;
5133;SDS011;2585;48.696;10.066;2022-08-03T09:49:22;2.67;;;1.50;;
5133;SDS011;2585;48.696;10.066;2022-08-03T09:51:50;1.80;;;1.50;;
5133;SDS011;2585;48.696;10.066;2022-08-03T09:54:38;1.70;;;1.40;;
5133;SDS011;2585;48.696;10.066;2022-08-03T09:57:07;2.27;;;1.70;;
5133;SDS011;2585;48.696;10.066;2022-08-03T09:59:45;1.80;;;1.43;;
5133;SDS011;2585;48.696;10.066;2022-08-03T10:02:19;1.67;;;1.50;;
5133;SDS011;2585;48.696;10.066;2022-08-03T10:04:48;1.83;;;1.50;;
5133;SDS011;2585;48.696;10.066;2022-08-03T10:07:18;4.10;;;1.93;;
5133;SDS011;2585;48.696;10.066;2022-08-03T10:09:58;1.83;;;1.70;;
5133;SDS011;2585;48.696;10.066;2022-08-03T10:12:47;1.57;;;1.47;;
5133;SDS011;2585;48.696;10.066;2022-08-03T10:15:14;1.60;;;1.50;;
5133;SDS011;2585;48.696;10.066;2022-08-03T10:18:01;4.07;;;1.70;;
5133;SDS011;2585;48.696;10.066;2022-08-03T10:20:28;1.63;;;1.53;;
5133;SDS011;2585;48.696;10.066;2022-08-03T10:22:55;2.57;;;1.53;;
5133;SDS011;2585;48.696;10.066;2022-08-03T10:25:22;1.70;;;1.60;;
5133;SDS011;2585;48.696;10.066;2022-08-03T10:27:58;4.43;;;1.50;;
5133;SDS011;2585;48.696;10.066;2022-08-03T10:30:30;1.80;;;1.70;;
5133;SDS011;2585;48.696;10.066;2022-08-03T10:35:55;1.80;;;1.70;;
5133;SDS011;2585;48.696;10.066;2022-08-03T10:38:36;2.07;;;1.87;;
5133;SDS011;2585;48.696;10.066;2022-08-03T10:41:12;1.77;;;1.43;;
5133;SDS011;2585;48.696;10.066;2022-08-03T10:43:46;1.33;;;1.23;;
5133;SDS011;2585;48.696;10.066;2022-08-03T10:46:18;1.43;;;1.30;;
5133;SDS011;2585;48.696;10.066;2022-08-03T10:48:47;1.60;;;1.40;;
5133;SDS011;2585;48.696;10.066;2022-08-03T10:51:15;1.50;;;1.40;;
5133;SDS011;2585;48.696;10.066;2022-08-03T10:53:42;1.43;;;1.33;;
5133;SDS011;2585;48.696;10.066;2022-08-03T10:59:19;1.63;;;1.53;;
5133;SDS011;2585;48.696;10.066;2022-08-03T11:02:11;1.73;;;1.37;;
5133;SDS011;2585;48.696;10.066;2022-08-03T11:04:39;4.40;;;1.40;;
5133;SDS011;2585;48.696;10.066;2022-08-03T11:09:44;3.67;;;1.67;;
5133;SDS011;2585;48.696;10.066;2022-08-03T11:12:26;2.63;;;1.77;;
5133;SDS011;2585;48.696;10.066;2022-08-03T11:14:58;2.00;;;1.50;;
5133;SDS011;2585;48.696;10.066;2022-08-03T11:17:28;2.30;;;1.27;;
5133;SDS011;2585;48.696;10.066;2022-08-03T11:19:55;1.90;;;1.50;;
5133;SDS011;2585;48.696;10.066;2022-08-03T11:22:24;1.43;;;1.30;;
5133;SDS011;2585;48.696;10.066;2022-08-03T11:27:23;2.43;;;1.43;;
5133;SDS011;2585;48.696;10.066;2022-08-03T11:32:53;1.57;;;1.47;;
5133;SDS011;2585;48.696;10.066;2022-08-03T11:35:25;1.53;;;1.40;;
5133;SDS011;2585;48.696;10.066;2022-08-03T11:38:02;1.50;;;1.40;;
5133;SDS011;2585;48.696;10.066;2022-08-03T11:40:34;2.93;;;1.33;;
5133;SDS011;2585;48.696;10.066;2022-08-03T11:43:50;2.10;;;1.40;;
5133;SDS011;2585;48.696;10.066;2022-08-03T11:48:34;2.60;;;1.50;;
5133;SDS011;2585;48.696;10.066;2022-08-03T11:51:02;2.37;;;1.60;;
5133;SDS011;2585;48.696;10.066;2022-08-03T11:53:30;1.70;;;1.60;;
5133;SDS011;2585;48.696;10.066;2022-08-03T11:55:58;1.30;;;1.20;;
5133;SDS011;2585;48.696;10.066;2022-08-03T11:58:26;1.30;;;1.10;;
5133;SDS011;2585;48.696;10.066;2022-08-03T12:01:13;3.43;;;1.53;;
5133;SDS011;2585;48.696;10.066;2022-08-03T12:03:48;1.40;;;1.30;;
5133;SDS011;2585;48.696;10.066;2022-08-03T12:06:16;1.30;;;1.20;;
5133;SDS011;2585;48.696;10.066;2022-08-03T12:08:44;2.60;;;1.60;;
5133;SDS011;2585;48.696;10.066;2022-08-03T12:11:12;1.63;;;1.40;;
5133;SDS011;2585;48.696;10.066;2022-08-03T12:16:28;1.40;;;1.27;;
5133;SDS011;2585;48.696;10.066;2022-08-03T12:18:57;1.77;;;1.40;;
5133;SDS011;2585;48.696;10.066;2022-08-03T12:21:24;2.30;;;1.43;;
5133;SDS011;2585;48.696;10.066;2022-08-03T12:24:10;1.43;;;1.33;;
5133;SDS011;2585;48.696;10.066;2022-08-03T12:29:24;1.50;;;1.40;;
5133;SDS011;2585;48.696;10.066;2022-08-03T12:31:52;1.47;;;1.37;;
5133;SDS011;2585;48.696;10.066;2022-08-03T12:34:19;1.50;;;1.40;;
5133;SDS011;2585;48.696;10.066;2022-08-03T12:36:49;2.07;;;1.50;;
5133;SDS011;2585;48.696;10.066;2022-08-03T12:39:21;1.20;;;1.10;;
5133;SDS011;2585;48.696;10.066;2022-08-03T12:41:51;1.40;;;1.30;;
5133;SDS011;2585;48.696;10.066;2022-08-03T12:44:27;2.43;;;1.40;;
5133;SDS011;2585;48.696;10.066;2022-08-03T12:47:01;1.80;;;1.70;;
5133;SDS011;2585;48.696;10.066;2022-08-03T12:49:43;2.70;;;1.67;;
5133;SDS011;2585;48.696;10.066;2022-08-03T12:52:14;1.50;;;1.40;;
5133;SDS011;2585;48.696;10.066;2022-08-03T12:54:41;1.50;;;1.40;;
5133;SDS011;2585;48.696;10.066;2022-08-03T12:57:18;1.67;;;1.50;;
5133;SDS011;2585;48.696;10.066;2022-08-03T12:59:46;1.30;;;1.20;;
5133;SDS011;2585;48.696;10.066;2022-08-03T13:02:22;1.40;;;1.30;;
5133;SDS011;2585;48.696;10.066;2022-08-03T13:04:52;2.07;;;1.83;;
5133;SDS011;2585;48.696;10.066;2022-08-03T13:07:19;4.53;;;1.67;;
5133;SDS011;2585;48.696;10.066;2022-08-03T13:09:49;3.50;;;1.20;;
5133;SDS011;2585;48.696;10.066;2022-08-03T13:12:26;1.50;;;1.40;;
5133;SDS011;2585;48.696;10.066;2022-08-03T13:14:55;1.43;;;1.33;;
5133;SDS011;2585;48.696;10.066;2022-08-03T13:17:24;2.20;;;1.40;;
5133;SDS011;2585;48.696;10.066;2022-08-03T13:19:52;1.43;;;1.33;;
5133;SDS011;2585;48.696;10.066;2022-08-03T13:22:20;1.43;;;1.27;;
5133;SDS011;2585;48.696;10.066;2022-08-03T13:24:50;1.23;;;1.13;;
5133;SDS011;2585;48.696;10.066;2022-08-03T13:27:21;1.63;;;1.30;;
5133;SDS011;2585;48.696;10.066;2022-08-03T13:30:08;1.83;;;1.47;;
5133;SDS011;2585;48.696;10.066;2022-08-03T13:32:36;1.30;;;1.20;;
5133;SDS011;2585;48.696;10.066;2022-08-03T13:35:03;1.50;;;1.40;;
5133;SDS011;2585;48.696;10.066;2022-08-03T13:37:31;2.23;;;1.50;;
5133;SDS011;2585;48.696;10.066;2022-08-03T13:39:58;1.60;;;1.50;;
5133;SDS011;2585;48.696;10.066;2022-08-03T13:42:29;5.00;;;1.70;;
5133;SDS011;2585;48.696;10.066;2022-08-03T13:44:57;2.47;;;1.90;;
5133;SDS011;2585;48.696;10.066;2022-08-03T13:47:25;2.80;;;1.50;;
5133;SDS011;2585;48.696;10.066;2022-08-03T13:49:52;2.90;;;1.30;;
5133;SDS011;2585;48.696;10.066;2022-08-03T13:52:31;2.20;;;1.40;;
5133;SDS011;2585;48.696;10.066;2022-08-03T13:54:59;1.90;;;1.60;;
5133;SDS011;2585;48.696;10.066;2022-08-03T13:57:27;1.43;;;1.33;;
5133;SDS011;2585;48.696;10.066;2022-08-03T14:00:14;1.37;;;1.27;;
5133;SDS011;2585;48.696;10.066;2022-08-03T14:02:54;2.10;;;1.53;;
5133;SDS011;2585;48.696;10.066;2022-08-03T14:05:30;2.13;;;1.50;;
5133;SDS011;2585;48.696;10.066;2022-08-03T14:07:58;2.07;;;1.80;;
5133;SDS011;2585;48.696;10.066;2022-08-03T14:10:40;10.43;;;1.80;;
5133;SDS011;2585;48.696;10.066;2022-08-03T14:13:09;1.63;;;1.40;;
5133;SDS011;2585;48.696;10.066;2022-08-03T14:15:42;1.97;;;1.60;;
5133;SDS011;2585;48.696;10.066;2022-08-03T14:18:15;2.23;;;1.60;;
5133;SDS011;2585;48.696;10.066;2022-08-03T14:20:59;4.13;;;1.67;;
5133;SDS011;2585;48.696;10.066;2022-08-03T14:23:31;1.30;;;1.20;;
5133;SDS011;2585;48.696;10.066;2022-08-03T14:25:59;3.93;;;1.53;;
5133;SDS011;2585;48.696;10.066;2022-08-03T14:28:26;6.80;;;1.50;;
5133;SDS011;2585;48.696;10.066;2022-08-03T14:30:54;1.60;;;1.50;;
5133;SDS011;2585;48.696;10.066;2022-08-03T14:33:23;1.80;;;1.60;;
5133;SDS011;2585;48.696;10.066;2022-08-03T14:35:50;1.90;;;1.57;;
5133;SDS011;2585;48.696;10.066;2022-08-03T14:38:17;1.33;;;1.23;;
5133;SDS011;2585;48.696;10.066;2022-08-03T14:40:45;1.63;;;1.53;;
5133;SDS011;2585;48.696;10.066;2022-08-03T14:43:12;2.70;;;1.50;;
5133;SDS011;2585;48.696;10.066;2022-08-03T14:45:40;2.60;;;1.20;;
5133;SDS011;2585;48.696;10.066;2022-08-03T14:48:07;1.80;;;1.37;;
5133;SDS011;2585;48.696;10.066;2022-08-03T14:50:54;2.57;;;1.40;;
5133;SDS011;2585;48.696;10.066;2022-08-03T14:53:22;3.00;;;1.57;;
5133;SDS011;2585;48.696;10.066;2022-08-03T14:55:49;3.33;;;1.30;;
5133;SDS011;2585;48.696;10.066;2022-08-03T14:58:18;2.80;;;1.57;;
5133;SDS011;2585;48.696;10.066;2022-08-03T15:00:47;5.23;;;1.50;;
5133;SDS011;2585;48.696;10.066;2022-08-03T15:03:15;1.63;;;1.53;;
5133;SDS011;2585;48.696;10.066;2022-08-03T15:05:45;1.83;;;1.37;;
5133;SDS011;2585;48.696;10.066;2022-08-03T15:08:12;1.20;;;1.10;;
5133;SDS011;2585;48.696;10.066;2022-08-03T15:10:39;2.57;;;1.50;;
5133;SDS011;2585;48.696;10.066;2022-08-03T15:13:13;2.20;;;1.40;;
5133;SDS011;2585;48.696;10.066;2022-08-03T15:15:40;2.13;;;1.50;;
5133;SDS011;2585;48.696;10.066;2022-08-03T15:18:07;1.77;;;1.43;;
5133;SDS011;2585;48.696;10.066;2022-08-03T15:20:34;1.70;;;1.40;;
5133;SDS011;2585;48.696;10.066;2022-08-03T15:23:11;2.70;;;1.50;;
5133;SDS011;2585;48.696;10.066;2022-08-03T15:25:39;1.37;;;1.27;;
5133;SDS011;2585;48.696;10.066;2022-08-03T15:28:26;3.00;;;1.40;;
5133;SDS011;2585;48.696;10.066;2022-08-03T15:30:52;1.70;;;1.60;;
5133;SDS011;2585;48.696;10.066;2022-08-03T15:33:20;3.90;;;1.63;;
5133;SDS011;2585;48.696;10.066;2022-08-03T15:35:47;3.10;;;1.70;;
5133;SDS011;2585;48.696;10.066;2022-08-03T15:38:15;2.40;;;1.60;;
5133;SDS011;2585;48.696;10.066;2022-08-03T15:40:42;1.57;;;1.47;;
5133;SDS011;2585;48.696;10.066;2022-08-03T15:43:08;1.57;;;1.47;;
5133;SDS011;2585;48.696;10.066;2022-08-03T15:45:35;3.53;;;1.70;;
5133;SDS011;2585;48.696;10.066;2022-08-03T15:48:03;1.73;;;1.60;;
5133;SDS011;2585;48.696;10.066;2022-08-03T15:50:30;1.90;;;1.60;;
5133;SDS011;2585;48.696;10.066;2022-08-03T15:52:57;1.80;;;1.70;;
5133;SDS011;2585;48.696;10.066;2022-08-03T15:55:24;2.57;;;2.07;;
5133;SDS011;2585;48.696;10.066;2022-08-03T15:57:51;4.60;;;1.50;;
5133;SDS011;2585;48.696;10.066;2022-08-03T16:00:39;1.63;;;1.33;;